TimeEDT,TemperatureF,Dew PointF,Humidity,Sea Level PressureIn,VisibilityMPH,Wind Direction,Wind SpeedMPH,Gust SpeedMPH,PrecipitationIn,Events,Conditions,WindDirDegrees,DateUTC
12:51 AM,36.0,33.1,89,30.19,10.0,Calm,Calm,-,N/A,,Clear,0,2011-10-31 04:51:00
1:51 AM,35.1,33.1,92,30.19,10.0,Calm,Calm,-,N/A,,Clear,0,2011-10-31 05:51:00
2:51 AM,33.1,32.0,96,30.19,9.0,ESE,3.5,-,N/A,,Clear,110,2011-10-31 06:51:00
3:51 AM,35.1,32.0,89,30.18,10.0,SW,3.5,-,N/A,,Clear,220,2011-10-31 07:51:00
4:51 AM,37.9,32.0,79,30.17,10.0,SW,3.5,-,N/A,,Clear,220,2011-10-31 08:51:00
5:51 AM,39.2,30.2,70,30.16,10.0,SSW,4.6,-,N/A,,Clear,200,2011-10-31 09:51:00
6:51 AM,41.0,32.0,70,30.17,10.0,SSW,3.5,-,N/A,,Partly Cloudy,210,2011-10-31 10:51:00
7:51 AM,43.0,30.9,62,30.17,10.0,SSW,3.5,-,N/A,,Overcast,200,2011-10-31 11:51:00
8:51 AM,44.1,32.0,63,30.19,10.0,SW,3.5,-,N/A,,Overcast,220,2011-10-31 12:51:00
9:51 AM,46.0,32.0,58,30.19,10.0,South,4.6,-,N/A,,Overcast,190,2011-10-31 13:51:00
10:51 AM,48.0,33.1,56,30.17,10.0,South,6.9,-,N/A,,Overcast,170,2011-10-31 14:51:00
11:51 AM,48.9,33.1,54,30.17,10.0,South,8.1,-,N/A,,Overcast,170,2011-10-31 15:51:00
12:51 PM,48.9,37.0,64,30.16,10.0,South,5.8,-,0.00,Rain,Light Rain,170,2011-10-31 16:51:00
1:51 PM,50.0,36.0,59,30.15,10.0,WSW,10.4,21.9,0.00,Rain,Light Rain,240,2011-10-31 17:51:00
2:51 PM,52.0,36.0,54,30.14,10.0,SSW,8.1,-,0.00,,Overcast,200,2011-10-31 18:51:00
3:51 PM,55.0,36.0,49,30.13,10.0,SSW,10.4,18.4,N/A,,Scattered Clouds,200,2011-10-31 19:51:00
4:51 PM,53.1,37.0,55,30.14,10.0,South,5.8,-,N/A,,Scattered Clouds,190,2011-10-31 20:51:00
5:51 PM,51.1,36.0,56,30.14,10.0,South,5.8,-,N/A,,Scattered Clouds,170,2011-10-31 21:51:00
6:51 PM,51.1,35.1,54,30.15,10.0,South,6.9,-,0.00,,Overcast,170,2011-10-31 22:51:00
7:51 PM,48.0,39.9,74,30.19,3.0,SSE,6.9,-,0.01,Rain,Rain,160,2011-10-31 23:51:00
7:56 PM,46.4,41.0,81,30.17,3.0,ESE,6.9,-,0.05,Rain,Rain,120,2011-10-31 23:56:00
8:03 PM,46.4,41.0,81,30.17,7.0,ESE,8.1,-,0.05,Rain,Light Rain,120,2011-11-01 00:03:00
8:12 PM,46.4,39.2,76,30.18,10.0,South,4.6,-,0.05,,Overcast,190,2011-11-01 00:12:00
8:51 PM,43.0,41.0,93,30.20,10.0,Calm,Calm,-,0.05,,Scattered Clouds,0,2011-11-01 00:51:00
9:51 PM,41.0,39.9,96,30.21,4.0,East,4.6,-,N/A,,Clear,80,2011-11-01 01:51:00
10:51 PM,41.0,39.9,96,30.22,10.0,East,4.6,-,N/A,,Clear,90,2011-11-01 02:51:00
11:51 PM,39.0,37.9,96,30.22,6.0,East,4.6,-,N/A,,Clear,90,2011-11-01 03:51:00